createdAt,value
2019-06-07T00:01:21.163Z,11.70
2019-06-07T00:03:51.736Z,11.70
2019-06-07T00:06:25.443Z,11.70
2019-06-07T00:08:54.394Z,11.60
2019-06-07T00:11:24.902Z,11.60
2019-06-07T00:13:55.390Z,11.60
2019-06-07T00:16:25.815Z,11.60
2019-06-07T00:18:56.344Z,11.60
2019-06-07T00:22:12.792Z,11.60
2019-06-07T00:23:59.247Z,11.60
2019-06-07T00:26:29.663Z,11.70
2019-06-07T00:29:00.104Z,11.70
2019-06-07T00:31:30.522Z,11.70
2019-06-07T00:34:00.964Z,11.80
2019-06-07T00:36:31.535Z,11.80
2019-06-07T00:39:02.127Z,11.80
2019-06-07T00:41:33.726Z,11.90
2019-06-07T00:44:04.427Z,11.90
2019-06-07T00:46:34.927Z,11.90
2019-06-07T00:49:05.465Z,12.00
2019-06-07T00:51:50.026Z,12.00
2019-06-07T00:54:08.262Z,12.10
2019-06-07T00:56:38.698Z,12.10
2019-06-07T00:59:11.719Z,12.10
2019-06-07T01:01:42.371Z,12.20
2019-06-07T01:04:17.728Z,12.20
2019-06-07T01:06:46.233Z,12.20
2019-06-07T01:09:17.752Z,12.20
2019-06-07T01:11:48.317Z,12.20
2019-06-07T01:14:21.970Z,12.20
2019-06-07T01:16:57.464Z,12.20
2019-06-07T01:19:26.982Z,12.20
2019-06-07T01:21:55.399Z,12.10
2019-06-07T01:24:25.894Z,12.10
2019-06-07T01:26:56.304Z,12.10
2019-06-07T01:29:29.454Z,12.10
2019-06-07T01:31:58.901Z,12.10
2019-06-07T01:34:29.403Z,12.10
2019-06-07T01:36:59.846Z,12.10
2019-06-07T01:39:31.853Z,12.10
2019-06-07T01:42:02.558Z,12.10
2019-06-07T01:44:33.030Z,12.10
2019-06-07T01:47:03.614Z,12.10
2019-06-07T01:49:34.207Z,12.10
2019-06-07T01:52:04.672Z,12.10
2019-06-07T01:54:56.758Z,12.10
2019-06-07T01:57:07.269Z,12.10
2019-06-07T01:59:37.899Z,12.10
2019-06-07T02:02:08.328Z,12.10
2019-06-07T02:04:38.756Z,12.10
2019-06-07T02:07:09.170Z,12.10
2019-06-07T02:09:39.595Z,12.10
2019-06-07T02:12:25.583Z,12.10
2019-06-07T02:14:42.370Z,12.20
2019-06-07T02:17:12.878Z,12.10
2019-06-07T02:19:43.377Z,12.10
2019-06-07T02:22:14.090Z,12.00
2019-06-07T02:24:44.577Z,12.00
2019-06-07T02:27:15.052Z,12.00
2019-06-07T02:29:45.470Z,12.00
2019-06-07T02:32:17.339Z,12.00
2019-06-07T02:34:47.759Z,12.00
2019-06-07T02:37:18.298Z,12.10
2019-06-07T02:39:48.752Z,12.00
2019-06-07T02:42:19.254Z,12.10
2019-06-07T02:44:49.670Z,12.10
2019-06-07T02:47:20.260Z,12.10
2019-06-07T02:49:50.842Z,12.10
2019-06-07T02:52:21.275Z,12.10
2019-06-07T02:54:51.688Z,12.10
2019-06-07T02:57:22.112Z,12.10
2019-06-07T03:00:07.006Z,12.10
2019-06-07T03:02:26.624Z,12.20
2019-06-07T03:04:56.781Z,12.20
2019-06-07T03:07:30.182Z,12.20
2019-06-07T03:10:02.519Z,12.20
2019-06-07T03:12:35.600Z,12.30
2019-06-07T03:15:06.391Z,12.30
2019-06-07T03:17:56.986Z,12.30
2019-06-07T03:20:31.614Z,12.30
2019-06-07T03:23:04.681Z,12.30
2019-06-07T03:25:40.954Z,12.30
2019-06-07T03:28:11.383Z,12.30
2019-06-07T03:30:58.005Z,12.30
2019-06-07T03:33:13.873Z,12.30
2019-06-07T03:35:44.291Z,12.20
2019-06-07T03:38:14.819Z,12.20
2019-06-07T03:40:45.259Z,12.20
2019-06-07T03:43:15.682Z,12.30
2019-06-07T03:45:46.110Z,12.30
2019-06-07T03:48:16.590Z,12.30
2019-06-07T03:50:47.241Z,12.30
2019-06-07T03:53:17.702Z,12.30
2019-06-07T03:55:48.125Z,12.20
2019-06-07T03:58:31.384Z,12.30
2019-06-07T04:00:51.642Z,12.30
2019-06-07T04:03:33.729Z,12.30
2019-06-07T04:05:54.240Z,12.30
2019-06-07T04:08:24.664Z,12.30
2019-06-07T04:11:00.291Z,12.20
2019-06-07T04:13:30.471Z,12.30
2019-06-07T04:16:00.246Z,12.30
2019-06-07T04:18:30.695Z,12.30
2019-06-07T04:21:01.211Z,12.30
2019-06-07T04:23:35.275Z,12.30
2019-06-07T04:26:04.002Z,12.30
2019-06-07T04:29:25.040Z,12.30
2019-06-07T04:31:07.506Z,12.30
2019-06-07T04:33:41.553Z,12.30
2019-06-07T04:36:10.614Z,12.30
2019-06-07T04:38:43.107Z,12.30
2019-06-07T04:41:14.719Z,12.30
2019-06-07T04:43:46.599Z,12.30
2019-06-07T04:46:18.271Z,12.20
2019-06-07T04:48:51.331Z,12.30
2019-06-07T04:51:25.379Z,12.30
2019-06-07T04:53:55.798Z,12.40
2019-06-07T04:56:26.432Z,12.50
2019-06-07T04:58:57.378Z,12.60
2019-06-07T05:01:30.623Z,12.60
2019-06-07T05:03:59.967Z,12.50
2019-06-07T05:06:32.935Z,12.50
2019-06-07T05:09:02.559Z,12.40
2019-06-07T05:11:35.903Z,12.50
2019-06-07T05:14:06.281Z,12.40
2019-06-07T05:16:40.677Z,12.40
2019-06-07T05:19:08.866Z,12.40
2019-06-07T05:22:01.451Z,12.40
2019-06-07T05:24:11.646Z,12.40
2019-06-07T05:26:42.954Z,12.50
2019-06-07T05:29:13.655Z,12.60
2019-06-07T05:31:45.742Z,12.60
2019-06-07T05:34:16.255Z,12.60
2019-06-07T05:37:10.112Z,12.50
2019-06-07T05:39:18.741Z,12.50
2019-06-07T05:41:49.170Z,12.60
2019-06-07T05:44:19.595Z,12.60
2019-06-07T05:46:50.115Z,12.60
2019-06-07T05:49:20.565Z,12.50
2019-06-07T05:51:51.480Z,12.50
2019-06-07T05:54:21.986Z,12.50
2019-06-07T05:56:52.448Z,12.50
2019-06-07T05:59:22.866Z,12.70
2019-06-07T06:02:02.845Z,12.70
2019-06-07T06:04:25.574Z,12.60
2019-06-07T06:06:56.205Z,12.60
2019-06-07T06:09:26.630Z,12.60
2019-06-07T06:12:02.349Z,12.60
2019-06-07T06:14:31.179Z,12.60
2019-06-07T06:17:01.599Z,12.60
2019-06-07T06:19:32.022Z,12.60
2019-06-07T06:22:02.573Z,12.60
2019-06-07T06:24:33.147Z,12.60
2019-06-07T06:27:19.029Z,12.60
2019-06-07T06:29:35.964Z,12.70
2019-06-07T06:32:41.245Z,12.70
2019-06-07T06:34:43.509Z,12.80
2019-06-07T06:37:11.970Z,12.90
2019-06-07T06:39:46.094Z,12.90
2019-06-07T06:42:14.460Z,12.80
2019-06-07T06:44:47.146Z,12.80
2019-06-07T06:47:17.234Z,12.80
2019-06-07T06:49:50.011Z,12.70
2019-06-07T06:52:19.932Z,12.80
2019-06-07T06:54:59.328Z,12.90
2019-06-07T06:57:22.714Z,13.00
2019-06-07T06:59:53.198Z,13.20
2019-06-07T07:02:23.621Z,13.30
2019-06-07T07:07:26.785Z,13.60
2019-06-07T07:10:00.047Z,14.30
2019-06-07T07:12:30.835Z,14.50
2019-06-07T07:15:01.284Z,14.70
2019-06-07T07:17:47.612Z,14.70
2019-06-07T07:20:05.179Z,14.50
2019-06-07T07:22:35.701Z,14.30
2019-06-07T07:25:07.031Z,14.30
2019-06-07T07:27:37.661Z,14.20
2019-06-07T07:32:45.068Z,14.50
2019-06-07T07:35:13.536Z,14.50
2019-06-07T07:37:46.232Z,14.50
2019-06-07T07:42:50.430Z,14.70
2019-06-07T07:45:20.294Z,14.80
2019-06-07T07:48:10.588Z,14.90
2019-06-07T07:50:23.874Z,15.00
2019-06-07T07:53:00.040Z,15.20
2019-06-07T08:05:42.399Z,15.50
2019-06-07T08:08:05.203Z,17.40
2019-06-07T08:18:05.205Z,17.60
2019-06-07T08:20:35.639Z,18.80
2019-06-07T08:23:06.211Z,19.10
2019-06-07T08:25:36.749Z,19.10
2019-06-07T08:28:07.220Z,18.80
2019-06-07T08:31:03.613Z,18.90
2019-06-07T08:33:25.447Z,18.30
2019-06-07T08:36:05.874Z,17.70
2019-06-07T08:38:26.866Z,17.30
2019-06-07T08:43:20.614Z,17.00
2019-06-07T09:05:48.235Z,15.80
2019-06-07T09:08:29.774Z,16.10
2019-06-07T09:10:50.728Z,16.40
2019-06-07T09:13:21.156Z,16.70
2019-06-07T09:15:51.595Z,16.80
2019-06-07T09:18:41.234Z,16.70
2019-06-07T09:20:55.639Z,16.70
2019-06-07T09:23:27.680Z,16.60
2019-06-07T09:26:09.815Z,16.30
2019-06-07T09:28:30.821Z,16.10
2019-06-07T09:31:06.918Z,16.10
2019-06-07T09:33:33.579Z,16.00
2019-06-07T09:36:07.932Z,15.90
2019-06-07T09:38:36.510Z,15.70
2019-06-07T09:41:07.596Z,15.50
2019-06-07T09:44:05.247Z,15.50
2019-06-07T09:46:14.892Z,15.40
2019-06-07T09:51:19.734Z,15.20
2019-06-07T09:53:47.668Z,15.10
2019-06-07T09:56:18.345Z,15.10
2019-06-07T09:58:52.635Z,15.30
2019-06-07T10:01:21.250Z,15.70
2019-06-07T10:03:51.894Z,16.20
2019-06-07T10:06:22.330Z,16.50
2019-06-07T10:11:24.922Z,16.80
2019-06-07T10:13:55.372Z,16.70
2019-06-07T10:16:25.797Z,16.80
2019-06-07T10:18:56.215Z,16.80
2019-06-07T10:21:26.642Z,16.80
2019-06-07T10:23:57.068Z,16.30
2019-06-07T10:26:27.691Z,15.80
2019-06-07T10:28:59.645Z,15.50
2019-06-07T10:31:30.192Z,15.30
2019-06-07T10:34:00.675Z,15.30
2019-06-07T10:36:31.158Z,15.40
2019-06-07T10:39:04.722Z,15.50
2019-06-07T10:41:36.250Z,15.70
2019-06-07T10:44:07.248Z,15.90
2019-06-07T10:46:37.777Z,16.10
2019-06-07T10:49:08.321Z,16.20
2019-06-07T10:51:39.246Z,16.20
2019-06-07T10:54:24.147Z,16.20
2019-06-07T10:56:42.556Z,16.20
2019-06-07T10:59:13.746Z,16.20
2019-06-07T11:01:44.330Z,16.20
2019-06-07T11:04:14.760Z,16.10
2019-06-07T11:06:45.504Z,16.00
2019-06-07T11:09:16.019Z,15.90
2019-06-07T11:11:47.458Z,15.80
2019-06-07T11:14:17.886Z,15.70
2019-06-07T11:16:48.331Z,15.70
2019-06-07T11:19:19.791Z,15.50
2019-06-07T11:21:50.331Z,15.40
2019-06-07T11:24:24.604Z,15.30
2019-06-07T11:26:52.944Z,15.30
2019-06-07T11:29:23.490Z,15.30
2019-06-07T11:31:54.071Z,15.30
2019-06-07T11:34:24.515Z,15.20
2019-06-07T11:36:57.851Z,15.00
2019-06-07T11:39:28.310Z,14.90
2019-06-07T11:41:58.737Z,14.90
2019-06-07T11:44:29.164Z,14.70
2019-06-07T11:46:59.591Z,14.40
2019-06-07T11:49:30.019Z,14.20
2019-06-07T11:54:30.791Z,14.10
2019-06-07T11:57:01.420Z,13.70
2019-06-07T11:59:32.177Z,13.70
2019-06-07T12:02:03.357Z,13.80
2019-06-07T12:04:35.131Z,13.90
2019-06-07T12:07:05.997Z,14.00
2019-06-07T12:09:36.742Z,14.10
2019-06-07T12:12:08.197Z,14.40
2019-06-07T12:14:38.690Z,14.60
2019-06-07T12:17:11.278Z,14.80
2019-06-07T12:19:41.788Z,14.90
2019-06-07T12:22:13.658Z,15.00
2019-06-07T12:24:44.398Z,15.00
2019-06-07T12:27:14.877Z,15.10
2019-06-07T12:29:45.397Z,15.40
2019-06-07T12:32:17.414Z,15.80
2019-06-07T12:34:47.943Z,15.80
2019-06-07T12:37:22.430Z,15.60
2019-06-07T12:47:21.623Z,15.60
2019-06-07T12:49:58.885Z,20.20
2019-06-07T12:52:29.330Z,22.70
2019-06-07T12:55:07.286Z,25.90
2019-06-07T12:57:40.987Z,26.90
2019-06-07T13:00:30.625Z,27.20
2019-06-07T13:03:01.543Z,26.00
2019-06-07T13:05:34.706Z,23.00
2019-06-07T13:08:05.324Z,22.00
2019-06-07T13:10:36.073Z,21.30
2019-06-07T13:13:06.747Z,21.20
2019-06-07T13:15:37.172Z,21.00
2019-06-07T13:18:07.708Z,20.80
2019-06-07T13:20:39.160Z,21.40
2019-06-07T13:23:09.578Z,20.30
2019-06-07T13:25:46.201Z,20.40
2019-06-07T13:28:13.504Z,22.30
2019-06-07T13:30:43.930Z,23.30
2019-06-07T13:33:14.365Z,23.60
2019-06-07T13:35:45.500Z,23.60
2019-06-07T13:38:26.387Z,23.00
2019-06-07T13:40:58.085Z,22.20
2019-06-07T13:43:28.559Z,22.00
2019-06-07T13:45:58.986Z,21.80
2019-06-07T13:48:29.412Z,21.60
2019-06-07T13:50:59.942Z,22.30
2019-06-07T13:53:30.361Z,23.20
2019-06-07T13:56:00.899Z,23.80
2019-06-07T13:58:31.316Z,22.50
2019-06-07T14:01:01.898Z,21.10
2019-06-07T14:03:33.975Z,20.70
2019-06-07T14:06:04.842Z,19.70
2019-06-07T14:08:35.287Z,19.10
2019-06-07T14:11:05.716Z,19.00
2019-06-07T14:13:36.182Z,19.50
2019-06-07T14:16:06.702Z,19.20
2019-06-07T14:18:37.095Z,18.70
2019-06-07T14:21:07.524Z,18.70
2019-06-07T14:23:48.271Z,19.00
2019-06-07T14:26:10.021Z,18.30
2019-06-07T14:28:40.442Z,18.40
2019-06-07T14:31:10.973Z,18.80
2019-06-07T14:33:41.507Z,19.60
2019-06-07T14:36:12.197Z,20.50
2019-06-07T14:38:42.671Z,20.60
2019-06-07T14:41:13.195Z,21.60
2019-06-07T14:43:43.803Z,21.30
2019-06-07T14:46:14.355Z,20.70
2019-06-07T14:48:44.791Z,20.00
2019-06-07T14:51:15.310Z,19.10
2019-06-07T14:53:45.738Z,18.40
2019-06-07T14:56:16.186Z,17.80
2019-06-07T14:58:46.798Z,17.30
2019-06-07T15:01:17.327Z,16.40
2019-06-07T15:03:47.912Z,15.60
2019-06-07T15:06:18.419Z,15.50
2019-06-07T15:08:51.441Z,15.50
2019-06-07T15:11:20.980Z,15.40
2019-06-07T15:13:51.477Z,15.50
2019-06-07T15:16:21.943Z,15.20
2019-06-07T15:18:52.363Z,15.10
2019-06-07T16:16:19.655Z,14.70
2019-06-07T16:26:19.143Z,13.20
2019-06-07T16:28:49.569Z,13.00
2019-06-07T16:31:19.997Z,13.00
2019-06-07T16:33:50.425Z,13.10
2019-06-07T16:36:20.957Z,13.00
2019-06-07T16:38:51.475Z,12.90
2019-06-07T16:41:23.616Z,12.80
2019-06-07T16:43:55.048Z,12.70
2019-06-07T16:46:25.446Z,12.70
2019-06-07T16:48:56.000Z,12.80
2019-06-07T16:51:26.486Z,12.90
2019-06-07T16:53:57.221Z,12.80
2019-06-07T16:56:27.647Z,12.70
2019-06-07T16:58:58.077Z,12.60
2019-06-07T17:01:29.527Z,12.60
2019-06-07T18:18:55.253Z,12.40
2019-06-07T18:21:26.920Z,12.20
2019-06-07T18:23:58.594Z,12.10
2019-06-07T18:41:29.824Z,12.00
2019-06-07T18:44:00.352Z,12.00
2019-06-07T18:46:30.786Z,12.00
2019-06-07T18:49:01.307Z,12.10
2019-06-07T18:51:31.849Z,12.10
2019-06-07T18:54:02.510Z,12.10
2019-06-07T18:56:34.117Z,12.20
2019-06-07T18:59:06.840Z,12.10
2019-06-07T19:01:37.323Z,12.10
2019-06-07T19:04:07.851Z,12.00
2019-06-07T19:06:38.434Z,12.00
2019-06-07T19:09:08.913Z,11.80
2019-06-07T19:11:40.534Z,11.70
2019-06-07T19:14:11.635Z,11.70
2019-06-07T19:24:11.975Z,11.60
2019-06-07T19:26:42.476Z,11.30
2019-06-07T19:29:12.942Z,11.30
2019-06-07T19:31:43.368Z,11.20
2019-06-07T19:34:13.794Z,11.20
2019-06-07T19:36:48.889Z,11.20
2019-06-07T19:39:16.389Z,11.10
2019-06-07T19:41:46.818Z,11.10
2019-06-07T19:44:17.244Z,11.10
2019-06-07T19:46:47.669Z,11.10
2019-06-07T19:49:18.108Z,11.10
2019-06-07T19:51:49.065Z,11.10
2019-06-07T19:54:19.567Z,11.10
2019-06-07T19:56:50.058Z,11.10
2019-06-07T19:59:20.580Z,11.10
2019-06-07T20:01:51.056Z,11.00
2019-06-07T20:04:21.583Z,11.00
2019-06-07T20:06:52.156Z,11.00
2019-06-07T20:09:22.639Z,11.00
2019-06-07T20:11:54.350Z,11.00
2019-06-07T20:14:25.021Z,11.00
2019-06-07T20:16:55.459Z,11.00
2019-06-07T20:19:25.927Z,11.00
2019-06-07T20:21:56.825Z,11.00
2019-06-07T20:24:27.746Z,11.00
2019-06-07T20:26:58.308Z,11.00
2019-06-07T20:29:30.193Z,11.00
2019-06-07T20:32:00.784Z,11.00
2019-06-07T20:34:31.211Z,11.00
2019-06-07T20:37:03.918Z,11.00
2019-06-07T20:39:33.969Z,11.10
2019-06-07T20:42:05.819Z,11.10
2019-06-07T20:44:36.401Z,11.10
2019-06-07T20:47:08.292Z,11.00
2019-06-07T20:49:38.920Z,11.10
2019-06-07T20:52:09.522Z,11.00
2019-06-07T20:54:39.950Z,11.00
2019-06-07T20:57:10.382Z,11.00
2019-06-07T20:59:40.795Z,11.00
2019-06-07T21:02:11.378Z,11.00
2019-06-07T21:04:41.947Z,11.00
2019-06-07T21:07:12.495Z,11.10
2019-06-07T21:09:42.929Z,11.10
2019-06-07T21:12:13.339Z,11.10
2019-06-07T21:14:43.767Z,11.10
2019-06-07T21:17:14.407Z,11.00
2019-06-07T21:19:44.835Z,11.00
2019-06-07T21:22:15.262Z,11.10
2019-06-07T21:24:45.679Z,11.10
2019-06-07T21:27:16.120Z,11.10
2019-06-07T21:29:47.670Z,11.20
2019-06-07T21:32:18.343Z,11.30
2019-06-07T21:34:48.818Z,11.20
2019-06-07T21:37:19.462Z,11.20
2019-06-07T21:39:54.981Z,11.20
2019-06-07T21:42:25.429Z,11.20
2019-06-07T21:44:55.866Z,11.30
2019-06-07T21:47:26.496Z,11.30
2019-06-07T21:49:57.128Z,11.40
2019-06-07T21:52:27.559Z,11.40
2019-06-07T21:54:57.990Z,11.30
2019-06-07T21:57:28.519Z,11.30
2019-06-07T21:59:59.030Z,11.30
2019-06-07T22:02:29.468Z,11.20
2019-06-07T22:05:00.036Z,11.20
2019-06-07T22:07:30.594Z,11.20
2019-06-07T22:10:01.258Z,11.20
2019-06-07T22:12:31.791Z,11.10
2019-06-07T22:15:02.622Z,11.20
2019-06-07T22:17:33.465Z,11.20
2019-06-07T22:20:06.321Z,11.20
2019-06-07T22:22:36.940Z,11.30
2019-06-07T22:25:09.004Z,11.20
2019-06-07T22:27:59.031Z,11.20
2019-06-07T22:30:29.635Z,11.20
2019-06-07T22:33:00.096Z,11.30
2019-06-07T22:35:30.826Z,11.30
2019-06-07T22:38:01.442Z,11.30
2019-06-07T22:40:31.894Z,11.40
2019-06-07T22:43:02.312Z,11.40
2019-06-07T22:45:32.727Z,11.40
2019-06-07T22:48:03.162Z,11.40
2019-06-07T22:50:34.603Z,11.40
2019-06-07T22:53:05.247Z,11.50
2019-06-07T22:55:35.777Z,11.50
2019-06-07T22:58:07.921Z,11.50
2019-06-07T23:00:39.586Z,11.60
2019-06-07T23:03:10.633Z,11.60
2019-06-07T23:05:41.214Z,11.60
2019-06-07T23:08:12.962Z,11.70
2019-06-07T23:10:43.566Z,11.70
2019-06-07T23:13:13.986Z,11.70
2019-06-07T23:15:44.419Z,11.70
2019-06-07T23:18:15.517Z,11.70
2019-06-07T23:20:45.984Z,11.70
2019-06-07T23:23:17.316Z,11.70
2019-06-07T23:25:47.862Z,11.70
2019-06-07T23:28:18.773Z,11.70
2019-06-07T23:30:49.423Z,11.60
2019-06-07T23:33:21.020Z,11.70
2019-06-07T23:35:51.514Z,11.60
2019-06-07T23:38:22.090Z,11.60
2019-06-07T23:40:52.754Z,11.60
2019-06-07T23:43:23.210Z,11.60
2019-06-07T23:45:53.643Z,11.70
2019-06-07T23:48:24.070Z,11.70
2019-06-07T23:50:54.802Z,11.60
2019-06-07T23:53:25.428Z,11.70
2019-06-07T23:55:56.059Z,11.60
2019-06-07T23:58:26.490Z,11.60
